sensor_id;sensor_type;location;lat;lon;timestamp;P1;durP1;ratioP1;P2;durP2;ratioP2
72584;SDS011;60618;40.084;32.908;2022-11-22T00:00:22;12.57;;;4.00;;
72584;SDS011;60618;40.084;32.908;2022-11-22T00:02:49;10.70;;;3.75;;
72584;SDS011;60618;40.084;32.908;2022-11-22T00:05:16;10.73;;;3.90;;
72584;SDS011;60618;40.084;32.908;2022-11-22T00:07:43;8.93;;;3.70;;
72584;SDS011;60618;40.084;32.908;2022-11-22T00:10:11;10.27;;;4.03;;
72584;SDS011;60618;40.084;32.908;2022-11-22T00:12:39;11.87;;;3.60;;
72584;SDS011;60618;40.084;32.908;2022-11-22T00:15:06;9.45;;;4.05;;
72584;SDS011;60618;40.084;32.908;2022-11-22T00:17:34;13.82;;;3.63;;
72584;SDS011;60618;40.084;32.908;2022-11-22T00:20:01;11.88;;;3.92;;
72584;SDS011;60618;40.084;32.908;2022-11-22T00:22:29;8.20;;;3.95;;
72584;SDS011;60618;40.084;32.908;2022-11-22T00:24:57;10.30;;;3.80;;
72584;SDS011;60618;40.084;32.908;2022-11-22T00:27:24;11.93;;;3.90;;
72584;SDS011;60618;40.084;32.908;2022-11-22T00:29:51;11.43;;;4.07;;
72584;SDS011;60618;40.084;32.908;2022-11-22T00:32:18;8.13;;;4.00;;
72584;SDS011;60618;40.084;32.908;2022-11-22T00:34:44;10.30;;;4.10;;
72584;SDS011;60618;40.084;32.908;2022-11-22T00:37:11;10.43;;;4.30;;
72584;SDS011;60618;40.084;32.908;2022-11-22T00:39:38;9.43;;;4.43;;
72584;SDS011;60618;40.084;32.908;2022-11-22T00:42:05;12.70;;;4.22;;
72584;SDS011;60618;40.084;32.908;2022-11-22T00:44:33;10.15;;;4.07;;
72584;SDS011;60618;40.084;32.908;2022-11-22T00:47:00;8.85;;;4.00;;
72584;SDS011;60618;40.084;32.908;2022-11-22T00:49:27;9.97;;;4.00;;
72584;SDS011;60618;40.084;32.908;2022-11-22T00:51:54;8.60;;;3.83;;
72584;SDS011;60618;40.084;32.908;2022-11-22T00:54:21;11.02;;;4.40;;
72584;SDS011;60618;40.084;32.908;2022-11-22T00:56:48;12.07;;;4.57;;
72584;SDS011;60618;40.084;32.908;2022-11-22T00:59:15;9.32;;;4.55;;
72584;SDS011;60618;40.084;32.908;2022-11-22T01:01:41;13.60;;;4.83;;
72584;SDS011;60618;40.084;32.908;2022-11-22T01:04:09;9.93;;;4.18;;
72584;SDS011;60618;40.084;32.908;2022-11-22T01:06:35;9.52;;;4.47;;
72584;SDS011;60618;40.084;32.908;2022-11-22T01:09:02;12.38;;;4.82;;
72584;SDS011;60618;40.084;32.908;2022-11-22T01:11:29;9.30;;;4.57;;
72584;SDS011;60618;40.084;32.908;2022-11-22T01:13:56;9.80;;;4.30;;
72584;SDS011;60618;40.084;32.908;2022-11-22T01:16:23;9.52;;;3.70;;
72584;SDS011;60618;40.084;32.908;2022-11-22T01:18:50;11.35;;;4.13;;
72584;SDS011;60618;40.084;32.908;2022-11-22T01:21:16;10.63;;;4.00;;
72584;SDS011;60618;40.084;32.908;2022-11-22T01:23:43;10.27;;;4.43;;
72584;SDS011;60618;40.084;32.908;2022-11-22T01:26:10;11.83;;;5.60;;
72584;SDS011;60618;40.084;32.908;2022-11-22T01:28:37;13.43;;;5.20;;
72584;SDS011;60618;40.084;32.908;2022-11-22T01:31:04;13.77;;;4.95;;
72584;SDS011;60618;40.084;32.908;2022-11-22T01:33:31;11.15;;;5.10;;
72584;SDS011;60618;40.084;32.908;2022-11-22T01:35:58;14.65;;;5.40;;
72584;SDS011;60618;40.084;32.908;2022-11-22T01:38:25;11.40;;;5.60;;
72584;SDS011;60618;40.084;32.908;2022-11-22T01:40:52;15.00;;;5.20;;
72584;SDS011;60618;40.084;32.908;2022-11-22T01:43:20;12.23;;;5.63;;
72584;SDS011;60618;40.084;32.908;2022-11-22T01:45:53;12.13;;;5.10;;
72584;SDS011;60618;40.084;32.908;2022-11-22T01:50:58;10.50;;;5.20;;
72584;SDS011;60618;40.084;32.908;2022-11-22T01:53:31;11.68;;;4.90;;
72584;SDS011;60618;40.084;32.908;2022-11-22T01:56:02;9.35;;;5.55;;
72584;SDS011;60618;40.084;32.908;2022-11-22T01:58:32;8.32;;;4.35;;
72584;SDS011;60618;40.084;32.908;2022-11-22T02:01:00;10.77;;;5.00;;
72584;SDS011;60618;40.084;32.908;2022-11-22T02:03:28;11.10;;;4.97;;
72584;SDS011;60618;40.084;32.908;2022-11-22T02:05:58;8.15;;;4.88;;
72584;SDS011;60618;40.084;32.908;2022-11-22T02:11:02;10.25;;;4.70;;
72584;SDS011;60618;40.084;32.908;2022-11-22T02:13:31;8.85;;;4.82;;
72584;SDS011;60618;40.084;32.908;2022-11-22T02:16:01;12.40;;;5.67;;
72584;SDS011;60618;40.084;32.908;2022-11-22T02:18:29;7.93;;;4.50;;
72584;SDS011;60618;40.084;32.908;2022-11-22T02:20:56;10.40;;;5.00;;
72584;SDS011;60618;40.084;32.908;2022-11-22T02:26:08;8.38;;;4.55;;
72584;SDS011;60618;40.084;32.908;2022-11-22T02:28:36;8.57;;;4.63;;
72584;SDS011;60618;40.084;32.908;2022-11-22T02:31:05;9.93;;;4.70;;
72584;SDS011;60618;40.084;32.908;2022-11-22T02:33:32;7.90;;;4.50;;
72584;SDS011;60618;40.084;32.908;2022-11-22T02:35:59;11.23;;;4.28;;
72584;SDS011;60618;40.084;32.908;2022-11-22T02:38:28;8.20;;;3.88;;
72584;SDS011;60618;40.084;32.908;2022-11-22T02:41:02;7.57;;;3.67;;
72584;SDS011;60618;40.084;32.908;2022-11-22T02:43:38;6.93;;;3.85;;
72584;SDS011;60618;40.084;32.908;2022-11-22T02:46:09;7.00;;;3.78;;
72584;SDS011;60618;40.084;32.908;2022-11-22T02:48:41;8.20;;;3.95;;
72584;SDS011;60618;40.084;32.908;2022-11-22T02:51:09;7.68;;;3.90;;
72584;SDS011;60618;40.084;32.908;2022-11-22T02:53:37;7.27;;;3.27;;
72584;SDS011;60618;40.084;32.908;2022-11-22T02:56:04;7.28;;;3.20;;
72584;SDS011;60618;40.084;32.908;2022-11-22T02:58:31;7.22;;;3.20;;
72584;SDS011;60618;40.084;32.908;2022-11-22T03:00:58;8.13;;;3.47;;
72584;SDS011;60618;40.084;32.908;2022-11-22T03:03:25;7.57;;;3.72;;
72584;SDS011;60618;40.084;32.908;2022-11-22T03:05:52;10.27;;;5.13;;
72584;SDS011;60618;40.084;32.908;2022-11-22T03:08:19;14.07;;;5.70;;
72584;SDS011;60618;40.084;32.908;2022-11-22T03:10:45;12.85;;;6.13;;
72584;SDS011;60618;40.084;32.908;2022-11-22T03:13:12;13.57;;;6.60;;
72584;SDS011;60618;40.084;32.908;2022-11-22T03:15:39;14.18;;;6.47;;
72584;SDS011;60618;40.084;32.908;2022-11-22T03:18:06;11.47;;;6.10;;
72584;SDS011;60618;40.084;32.908;2022-11-22T03:20:33;10.90;;;4.78;;
72584;SDS011;60618;40.084;32.908;2022-11-22T03:23:00;10.88;;;5.28;;
72584;SDS011;60618;40.084;32.908;2022-11-22T03:25:27;8.40;;;3.85;;
72584;SDS011;60618;40.084;32.908;2022-11-22T03:27:54;8.70;;;5.00;;
72584;SDS011;60618;40.084;32.908;2022-11-22T03:30:20;10.17;;;4.77;;
72584;SDS011;60618;40.084;32.908;2022-11-22T03:32:47;10.05;;;5.05;;
72584;SDS011;60618;40.084;32.908;2022-11-22T03:35:14;10.57;;;4.72;;
72584;SDS011;60618;40.084;32.908;2022-11-22T03:37:41;10.77;;;4.80;;
72584;SDS011;60618;40.084;32.908;2022-11-22T03:40:08;8.75;;;4.80;;
72584;SDS011;60618;40.084;32.908;2022-11-22T03:42:35;11.07;;;5.20;;
72584;SDS011;60618;40.084;32.908;2022-11-22T03:45:02;9.80;;;4.90;;
72584;SDS011;60618;40.084;32.908;2022-11-22T03:47:29;12.27;;;5.32;;
72584;SDS011;60618;40.084;32.908;2022-11-22T03:49:55;8.90;;;4.88;;
72584;SDS011;60618;40.084;32.908;2022-11-22T03:52:22;10.43;;;5.20;;
72584;SDS011;60618;40.084;32.908;2022-11-22T03:54:49;12.13;;;5.27;;
72584;SDS011;60618;40.084;32.908;2022-11-22T03:57:16;10.52;;;5.03;;
72584;SDS011;60618;40.084;32.908;2022-11-22T03:59:43;10.77;;;4.68;;
72584;SDS011;60618;40.084;32.908;2022-11-22T04:02:09;9.85;;;4.85;;
72584;SDS011;60618;40.084;32.908;2022-11-22T04:04:36;10.63;;;5.20;;
72584;SDS011;60618;40.084;32.908;2022-11-22T04:07:03;11.23;;;5.50;;
72584;SDS011;60618;40.084;32.908;2022-11-22T04:09:30;10.05;;;5.50;;
72584;SDS011;60618;40.084;32.908;2022-11-22T04:11:57;10.55;;;5.55;;
72584;SDS011;60618;40.084;32.908;2022-11-22T04:14:24;11.50;;;6.22;;
72584;SDS011;60618;40.084;32.908;2022-11-22T04:16:51;11.40;;;5.60;;
72584;SDS011;60618;40.084;32.908;2022-11-22T04:19:18;9.20;;;5.10;;
72584;SDS011;60618;40.084;32.908;2022-11-22T04:21:44;9.88;;;5.13;;
72584;SDS011;60618;40.084;32.908;2022-11-22T04:24:11;11.68;;;5.65;;
72584;SDS011;60618;40.084;32.908;2022-11-22T04:26:38;10.50;;;5.63;;
72584;SDS011;60618;40.084;32.908;2022-11-22T04:29:05;11.20;;;5.93;;
72584;SDS011;60618;40.084;32.908;2022-11-22T04:31:35;11.50;;;6.60;;
72584;SDS011;60618;40.084;32.908;2022-11-22T04:34:02;10.32;;;5.95;;
72584;SDS011;60618;40.084;32.908;2022-11-22T04:36:29;10.23;;;6.13;;
72584;SDS011;60618;40.084;32.908;2022-11-22T04:38:56;12.20;;;6.60;;
72584;SDS011;60618;40.084;32.908;2022-11-22T04:41:22;11.63;;;6.53;;
72584;SDS011;60618;40.084;32.908;2022-11-22T04:43:49;12.00;;;6.70;;
72584;SDS011;60618;40.084;32.908;2022-11-22T04:46:16;15.35;;;7.30;;
72584;SDS011;60618;40.084;32.908;2022-11-22T04:48:43;13.48;;;7.50;;
72584;SDS011;60618;40.084;32.908;2022-11-22T04:51:11;13.38;;;7.97;;
72584;SDS011;60618;40.084;32.908;2022-11-22T04:53:40;13.93;;;7.70;;
72584;SDS011;60618;40.084;32.908;2022-11-22T04:56:06;13.80;;;7.77;;
72584;SDS011;60618;40.084;32.908;2022-11-22T04:58:33;14.10;;;8.20;;
72584;SDS011;60618;40.084;32.908;2022-11-22T05:01:00;15.75;;;7.88;;
72584;SDS011;60618;40.084;32.908;2022-11-22T05:03:27;14.00;;;7.85;;
72584;SDS011;60618;40.084;32.908;2022-11-22T05:05:54;16.60;;;8.57;;
72584;SDS011;60618;40.084;32.908;2022-11-22T05:08:21;14.20;;;7.93;;
72584;SDS011;60618;40.084;32.908;2022-11-22T05:10:48;13.25;;;7.18;;
72584;SDS011;60618;40.084;32.908;2022-11-22T05:13:18;11.68;;;7.03;;
72584;SDS011;60618;40.084;32.908;2022-11-22T05:15:47;12.13;;;6.18;;
72584;SDS011;60618;40.084;32.908;2022-11-22T05:18:14;13.93;;;6.65;;
72584;SDS011;60618;40.084;32.908;2022-11-22T05:20:41;17.17;;;10.07;;
72584;SDS011;60618;40.084;32.908;2022-11-22T05:23:07;15.13;;;8.23;;
72584;SDS011;60618;40.084;32.908;2022-11-22T05:25:34;18.25;;;10.05;;
72584;SDS011;60618;40.084;32.908;2022-11-22T05:28:03;19.85;;;11.00;;
72584;SDS011;60618;40.084;32.908;2022-11-22T05:30:30;17.48;;;8.93;;
72584;SDS011;60618;40.084;32.908;2022-11-22T05:32:57;18.10;;;9.33;;
72584;SDS011;60618;40.084;32.908;2022-11-22T05:35:24;16.98;;;9.55;;
72584;SDS011;60618;40.084;32.908;2022-11-22T05:37:51;17.00;;;9.57;;
72584;SDS011;60618;40.084;32.908;2022-11-22T05:40:18;22.38;;;10.55;;
72584;SDS011;60618;40.084;32.908;2022-11-22T05:42:44;20.17;;;10.75;;
72584;SDS011;60618;40.084;32.908;2022-11-22T05:45:11;18.13;;;9.53;;
72584;SDS011;60618;40.084;32.908;2022-11-22T05:47:38;19.48;;;9.80;;
72584;SDS011;60618;40.084;32.908;2022-11-22T05:50:05;18.92;;;10.15;;
72584;SDS011;60618;40.084;32.908;2022-11-22T05:52:32;22.35;;;10.20;;
72584;SDS011;60618;40.084;32.908;2022-11-22T05:55:00;18.65;;;9.63;;
72584;SDS011;60618;40.084;32.908;2022-11-22T05:57:27;18.27;;;8.97;;
72584;SDS011;60618;40.084;32.908;2022-11-22T05:59:54;20.30;;;10.52;;
72584;SDS011;60618;40.084;32.908;2022-11-22T06:02:21;21.45;;;11.25;;
72584;SDS011;60618;40.084;32.908;2022-11-22T06:04:48;21.38;;;9.93;;
72584;SDS011;60618;40.084;32.908;2022-11-22T06:07:15;17.58;;;8.98;;
72584;SDS011;60618;40.084;32.908;2022-11-22T06:09:42;15.87;;;8.50;;
72584;SDS011;60618;40.084;32.908;2022-11-22T06:12:09;15.43;;;7.85;;
72584;SDS011;60618;40.084;32.908;2022-11-22T06:14:36;14.93;;;7.75;;
72584;SDS011;60618;40.084;32.908;2022-11-22T06:17:08;19.17;;;8.65;;
72584;SDS011;60618;40.084;32.908;2022-11-22T06:19:35;17.92;;;8.50;;
72584;SDS011;60618;40.084;32.908;2022-11-22T06:22:02;17.00;;;8.30;;
72584;SDS011;60618;40.084;32.908;2022-11-22T06:24:29;18.20;;;9.30;;
72584;SDS011;60618;40.084;32.908;2022-11-22T06:26:56;24.65;;;9.68;;
72584;SDS011;60618;40.084;32.908;2022-11-22T06:29:22;18.58;;;9.65;;
72584;SDS011;60618;40.084;32.908;2022-11-22T06:31:49;19.63;;;10.02;;
72584;SDS011;60618;40.084;32.908;2022-11-22T06:34:16;18.97;;;10.00;;
72584;SDS011;60618;40.084;32.908;2022-11-22T06:36:43;17.63;;;9.57;;
72584;SDS011;60618;40.084;32.908;2022-11-22T06:39:10;18.15;;;9.10;;
72584;SDS011;60618;40.084;32.908;2022-11-22T06:41:37;16.55;;;8.90;;
72584;SDS011;60618;40.084;32.908;2022-11-22T06:44:05;14.77;;;9.07;;
72584;SDS011;60618;40.084;32.908;2022-11-22T06:46:33;20.47;;;9.63;;
72584;SDS011;60618;40.084;32.908;2022-11-22T06:49:00;17.42;;;9.02;;
72584;SDS011;60618;40.084;32.908;2022-11-22T06:51:28;19.38;;;10.85;;
72584;SDS011;60618;40.084;32.908;2022-11-22T06:53:56;17.98;;;9.85;;
72584;SDS011;60618;40.084;32.908;2022-11-22T06:56:31;19.13;;;10.52;;
72584;SDS011;60618;40.084;32.908;2022-11-22T06:59:02;18.97;;;10.57;;
72584;SDS011;60618;40.084;32.908;2022-11-22T07:01:30;22.63;;;11.35;;
72584;SDS011;60618;40.084;32.908;2022-11-22T07:03:59;19.00;;;9.98;;
72584;SDS011;60618;40.084;32.908;2022-11-22T07:06:28;17.85;;;8.35;;
72584;SDS011;60618;40.084;32.908;2022-11-22T07:08:57;16.48;;;7.93;;
72584;SDS011;60618;40.084;32.908;2022-11-22T07:11:26;17.27;;;7.90;;
72584;SDS011;60618;40.084;32.908;2022-11-22T07:13:55;16.50;;;8.38;;
72584;SDS011;60618;40.084;32.908;2022-11-22T07:16:32;14.85;;;8.10;;
72584;SDS011;60618;40.084;32.908;2022-11-22T07:19:00;16.73;;;8.55;;
72584;SDS011;60618;40.084;32.908;2022-11-22T07:21:27;17.15;;;8.30;;
72584;SDS011;60618;40.084;32.908;2022-11-22T07:23:54;18.70;;;9.67;;
72584;SDS011;60618;40.084;32.908;2022-11-22T07:26:22;23.42;;;11.25;;
72584;SDS011;60618;40.084;32.908;2022-11-22T07:28:50;23.75;;;13.30;;
72584;SDS011;60618;40.084;32.908;2022-11-22T07:31:17;28.25;;;14.40;;
72584;SDS011;60618;40.084;32.908;2022-11-22T07:33:45;28.83;;;16.23;;
72584;SDS011;60618;40.084;32.908;2022-11-22T07:36:13;26.83;;;15.37;;
72584;SDS011;60618;40.084;32.908;2022-11-22T07:38:46;29.10;;;16.58;;
72584;SDS011;60618;40.084;32.908;2022-11-22T07:41:14;29.70;;;16.60;;
72584;SDS011;60618;40.084;32.908;2022-11-22T07:43:42;33.38;;;18.05;;
72584;SDS011;60618;40.084;32.908;2022-11-22T07:46:23;30.27;;;16.80;;
72584;SDS011;60618;40.084;32.908;2022-11-22T07:48:51;27.97;;;14.63;;
72584;SDS011;60618;40.084;32.908;2022-11-22T07:51:18;24.17;;;13.82;;
72584;SDS011;60618;40.084;32.908;2022-11-22T07:53:45;21.45;;;11.57;;
72584;SDS011;60618;40.084;32.908;2022-11-22T07:56:12;19.30;;;11.73;;
72584;SDS011;60618;40.084;32.908;2022-11-22T07:58:39;20.33;;;10.85;;
72584;SDS011;60618;40.084;32.908;2022-11-22T08:01:07;20.73;;;11.37;;
72584;SDS011;60618;40.084;32.908;2022-11-22T08:03:39;18.35;;;10.70;;
72584;SDS011;60618;40.084;32.908;2022-11-22T08:06:07;20.05;;;9.40;;
72584;SDS011;60618;40.084;32.908;2022-11-22T08:08:36;15.75;;;9.18;;
72584;SDS011;60618;40.084;32.908;2022-11-22T08:11:03;19.98;;;11.40;;
72584;SDS011;60618;40.084;32.908;2022-11-22T08:13:31;19.53;;;10.53;;
72584;SDS011;60618;40.084;32.908;2022-11-22T08:16:05;19.23;;;9.52;;
72584;SDS011;60618;40.084;32.908;2022-11-22T08:18:35;17.58;;;9.68;;
72584;SDS011;60618;40.084;32.908;2022-11-22T08:21:10;19.13;;;8.45;;
72584;SDS011;60618;40.084;32.908;2022-11-22T08:23:38;16.33;;;7.50;;
72584;SDS011;60618;40.084;32.908;2022-11-22T08:26:06;10.70;;;5.80;;
72584;SDS011;60618;40.084;32.908;2022-11-22T08:28:34;12.43;;;5.63;;
72584;SDS011;60618;40.084;32.908;2022-11-22T08:31:03;11.55;;;6.05;;
72584;SDS011;60618;40.084;32.908;2022-11-22T08:33:31;11.10;;;4.90;;
72584;SDS011;60618;40.084;32.908;2022-11-22T08:35:58;9.38;;;4.57;;
72584;SDS011;60618;40.084;32.908;2022-11-22T08:38:25;11.17;;;4.90;;
72584;SDS011;60618;40.084;32.908;2022-11-22T08:40:52;10.57;;;5.40;;
72584;SDS011;60618;40.084;32.908;2022-11-22T08:43:32;10.07;;;4.50;;
72584;SDS011;60618;40.084;32.908;2022-11-22T08:46:02;8.85;;;3.70;;
72584;SDS011;60618;40.084;32.908;2022-11-22T08:48:30;6.60;;;3.60;;
72584;SDS011;60618;40.084;32.908;2022-11-22T08:50:59;6.60;;;3.30;;
72584;SDS011;60618;40.084;32.908;2022-11-22T08:53:28;6.38;;;3.17;;
72584;SDS011;60618;40.084;32.908;2022-11-22T08:56:00;9.60;;;3.83;;
72584;SDS011;60618;40.084;32.908;2022-11-22T08:58:29;10.65;;;3.70;;
72584;SDS011;60618;40.084;32.908;2022-11-22T09:00:56;7.90;;;3.00;;
72584;SDS011;60618;40.084;32.908;2022-11-22T09:03:28;4.73;;;2.50;;
72584;SDS011;60618;40.084;32.908;2022-11-22T09:06:02;7.18;;;2.70;;
72584;SDS011;60618;40.084;32.908;2022-11-22T09:08:50;6.68;;;2.80;;
72584;SDS011;60618;40.084;32.908;2022-11-22T09:11:37;6.88;;;3.53;;
72584;SDS011;60618;40.084;32.908;2022-11-22T09:14:04;8.45;;;3.30;;
72584;SDS011;60618;40.084;32.908;2022-11-22T09:16:31;7.37;;;3.67;;
72584;SDS011;60618;40.084;32.908;2022-11-22T09:18:58;7.68;;;3.55;;
72584;SDS011;60618;40.084;32.908;2022-11-22T09:21:25;8.63;;;3.75;;
72584;SDS011;60618;40.084;32.908;2022-11-22T09:23:52;8.60;;;3.60;;
72584;SDS011;60618;40.084;32.908;2022-11-22T09:26:22;6.00;;;3.40;;
72584;SDS011;60618;40.084;32.908;2022-11-22T09:28:49;8.87;;;3.60;;
72584;SDS011;60618;40.084;32.908;2022-11-22T09:31:18;9.85;;;4.00;;
72584;SDS011;60618;40.084;32.908;2022-11-22T09:33:46;7.95;;;3.35;;
72584;SDS011;60618;40.084;32.908;2022-11-22T09:36:14;7.00;;;3.50;;
72584;SDS011;60618;40.084;32.908;2022-11-22T09:38:45;7.15;;;3.60;;
72584;SDS011;60618;40.084;32.908;2022-11-22T09:51:33;7.43;;;3.60;;
72584;SDS011;60618;40.084;32.908;2022-11-22T09:54:11;6.57;;;3.20;;
72584;SDS011;60618;40.084;32.908;2022-11-22T09:56:44;6.38;;;3.30;;
72584;SDS011;60618;40.084;32.908;2022-11-22T09:59:17;6.28;;;3.10;;
72584;SDS011;60618;40.084;32.908;2022-11-22T10:04:44;6.90;;;2.88;;
72584;SDS011;60618;40.084;32.908;2022-11-22T10:07:36;5.47;;;2.80;;
72584;SDS011;60618;40.084;32.908;2022-11-22T10:10:12;6.88;;;2.70;;
72584;SDS011;60618;40.084;32.908;2022-11-22T10:13:01;4.85;;;2.13;;
72584;SDS011;60618;40.084;32.908;2022-11-22T10:15:37;5.55;;;2.22;;
72584;SDS011;60618;40.084;32.908;2022-11-22T10:18:18;5.65;;;2.20;;
72584;SDS011;60618;40.084;32.908;2022-11-22T10:20:52;8.13;;;2.37;;
72584;SDS011;60618;40.084;32.908;2022-11-22T10:23:21;8.43;;;2.67;;
72584;SDS011;60618;40.084;32.908;2022-11-22T10:25:57;5.53;;;2.15;;
72584;SDS011;60618;40.084;32.908;2022-11-22T10:28:32;5.47;;;2.30;;
72584;SDS011;60618;40.084;32.908;2022-11-22T10:42:20;6.55;;;2.47;;
72584;SDS011;60618;40.084;32.908;2022-11-22T10:53:57;3.85;;;1.20;;
72584;SDS011;60618;40.084;32.908;2022-11-22T10:56:38;3.55;;;1.10;;
72584;SDS011;60618;40.084;32.908;2022-11-22T10:59:39;3.78;;;1.25;;
72584;SDS011;60618;40.084;32.908;2022-11-22T11:05:01;4.90;;;1.33;;
72584;SDS011;60618;40.084;32.908;2022-11-22T11:07:33;5.22;;;1.40;;
72584;SDS011;60618;40.084;32.908;2022-11-22T11:10:04;4.32;;;1.30;;
72584;SDS011;60618;40.084;32.908;2022-11-22T11:12:57;4.68;;;1.60;;
72584;SDS011;60618;40.084;32.908;2022-11-22T11:15:37;3.77;;;1.40;;
72584;SDS011;60618;40.084;32.908;2022-11-22T11:18:22;5.03;;;1.70;;
72584;SDS011;60618;40.084;32.908;2022-11-22T11:20:51;5.00;;;1.80;;
72584;SDS011;60618;40.084;32.908;2022-11-22T11:23:18;5.93;;;1.50;;
72584;SDS011;60618;40.084;32.908;2022-11-22T11:25:47;4.20;;;1.58;;
72584;SDS011;60618;40.084;32.908;2022-11-22T11:33:24;3.83;;;1.50;;
72584;SDS011;60618;40.084;32.908;2022-11-22T11:36:01;3.88;;;1.50;;
72584;SDS011;60618;40.084;32.908;2022-11-22T11:38:33;3.83;;;1.60;;
72584;SDS011;60618;40.084;32.908;2022-11-22T11:41:17;4.97;;;1.40;;
72584;SDS011;60618;40.084;32.908;2022-11-22T11:43:52;4.13;;;1.40;;
72584;SDS011;60618;40.084;32.908;2022-11-22T11:46:24;4.75;;;1.60;;
72584;SDS011;60618;40.084;32.908;2022-11-22T11:48:57;5.10;;;1.80;;
72584;SDS011;60618;40.084;32.908;2022-11-22T11:51:48;4.70;;;1.70;;
72584;SDS011;60618;40.084;32.908;2022-11-22T11:57:09;5.43;;;1.70;;
72584;SDS011;60618;40.084;32.908;2022-11-22T12:10:00;4.88;;;1.40;;
72584;SDS011;60618;40.084;32.908;2022-11-22T12:12:55;5.15;;;1.70;;
72584;SDS011;60618;40.084;32.908;2022-11-22T12:15:57;3.80;;;1.20;;
72584;SDS011;60618;40.084;32.908;2022-11-22T12:24:06;3.95;;;1.40;;
72584;SDS011;60618;40.084;32.908;2022-11-22T12:26:59;5.07;;;1.35;;
72584;SDS011;60618;40.084;32.908;2022-11-22T12:29:26;4.13;;;1.60;;
72584;SDS011;60618;40.084;32.908;2022-11-22T12:32:01;3.95;;;1.60;;
72584;SDS011;60618;40.084;32.908;2022-11-22T12:34:38;4.10;;;1.60;;
72584;SDS011;60618;40.084;32.908;2022-11-22T12:37:09;6.28;;;1.60;;
72584;SDS011;60618;40.084;32.908;2022-11-22T12:39:48;7.00;;;1.70;;
72584;SDS011;60618;40.084;32.908;2022-11-22T12:42:59;4.20;;;1.50;;
72584;SDS011;60618;40.084;32.908;2022-11-22T12:45:09;5.05;;;1.60;;
72584;SDS011;60618;40.084;32.908;2022-11-22T12:47:42;3.53;;;1.20;;
72584;SDS011;60618;40.084;32.908;2022-11-22T12:52:59;4.03;;;1.40;;
72584;SDS011;60618;40.084;32.908;2022-11-22T12:55:41;5.60;;;1.50;;
72584;SDS011;60618;40.084;32.908;2022-11-22T12:58:48;4.20;;;1.60;;
72584;SDS011;60618;40.084;32.908;2022-11-22T13:04:02;4.25;;;1.50;;
72584;SDS011;60618;40.084;32.908;2022-11-22T13:06:41;3.88;;;1.50;;
72584;SDS011;60618;40.084;32.908;2022-11-22T13:09:19;5.13;;;1.80;;
72584;SDS011;60618;40.084;32.908;2022-11-22T13:12:08;4.93;;;1.60;;
72584;SDS011;60618;40.084;32.908;2022-11-22T13:14:43;4.10;;;1.57;;
72584;SDS011;60618;40.084;32.908;2022-11-22T13:17:14;5.32;;;1.70;;
72584;SDS011;60618;40.084;32.908;2022-11-22T13:27:43;4.70;;;1.90;;
72584;SDS011;60618;40.084;32.908;2022-11-22T13:30:18;6.15;;;1.70;;
72584;SDS011;60618;40.084;32.908;2022-11-22T13:32:48;4.38;;;1.70;;
72584;SDS011;60618;40.084;32.908;2022-11-22T13:35:33;4.18;;;1.80;;
72584;SDS011;60618;40.084;32.908;2022-11-22T13:38:05;5.57;;;2.00;;
72584;SDS011;60618;40.084;32.908;2022-11-22T13:40:44;4.70;;;1.80;;
72584;SDS011;60618;40.084;32.908;2022-11-22T13:51:15;4.10;;;1.65;;
72584;SDS011;60618;40.084;32.908;2022-11-22T13:54:32;4.90;;;1.80;;
72584;SDS011;60618;40.084;32.908;2022-11-22T13:57:02;5.70;;;1.90;;
72584;SDS011;60618;40.084;32.908;2022-11-22T13:59:34;4.18;;;1.80;;
72584;SDS011;60618;40.084;32.908;2022-11-22T14:02:02;4.72;;;1.88;;
72584;SDS011;60618;40.084;32.908;2022-11-22T14:04:34;4.85;;;1.73;;
72584;SDS011;60618;40.084;32.908;2022-11-22T14:07:05;4.00;;;2.00;;
72584;SDS011;60618;40.084;32.908;2022-11-22T14:12:24;6.43;;;1.90;;
72584;SDS011;60618;40.084;32.908;2022-11-22T14:21:26;4.00;;;1.70;;
72584;SDS011;60618;40.084;32.908;2022-11-22T14:26:39;5.15;;;2.15;;
72584;SDS011;60618;40.084;32.908;2022-11-22T14:32:27;5.13;;;2.00;;
72584;SDS011;60618;40.084;32.908;2022-11-22T14:37:47;8.05;;;2.40;;
72584;SDS011;60618;40.084;32.908;2022-11-22T14:40:29;5.28;;;2.15;;
72584;SDS011;60618;40.084;32.908;2022-11-22T14:43:04;5.50;;;2.30;;
72584;SDS011;60618;40.084;32.908;2022-11-22T14:45:51;5.40;;;2.28;;
72584;SDS011;60618;40.084;32.908;2022-11-22T14:48:25;6.07;;;2.33;;
72584;SDS011;60618;40.084;32.908;2022-11-22T14:53:42;5.72;;;2.60;;
72584;SDS011;60618;40.084;32.908;2022-11-22T14:59:10;6.55;;;2.60;;
72584;SDS011;60618;40.084;32.908;2022-11-22T15:02:05;7.17;;;3.03;;
72584;SDS011;60618;40.084;32.908;2022-11-22T15:08:09;6.25;;;2.70;;
72584;SDS011;60618;40.084;32.908;2022-11-22T15:16:56;6.20;;;3.00;;
72584;SDS011;60618;40.084;32.908;2022-11-22T15:19:45;6.82;;;3.47;;
72584;SDS011;60618;40.084;32.908;2022-11-22T15:22:32;9.40;;;3.20;;
72584;SDS011;60618;40.084;32.908;2022-11-22T15:25:19;8.40;;;3.50;;
72584;SDS011;60618;40.084;32.908;2022-11-22T15:28:09;8.15;;;3.15;;
72584;SDS011;60618;40.084;32.908;2022-11-22T15:30:59;7.47;;;3.17;;
72584;SDS011;60618;40.084;32.908;2022-11-22T15:33:50;7.45;;;3.30;;
72584;SDS011;60618;40.084;32.908;2022-11-22T15:40:17;6.38;;;3.22;;
72584;SDS011;60618;40.084;32.908;2022-11-22T15:43:09;6.97;;;3.25;;
72584;SDS011;60618;40.084;32.908;2022-11-22T15:46:00;7.50;;;2.90;;
72584;SDS011;60618;40.084;32.908;2022-11-22T15:48:47;8.85;;;2.95;;
72584;SDS011;60618;40.084;32.908;2022-11-22T15:55:09;10.45;;;3.47;;
72584;SDS011;60618;40.084;32.908;2022-11-22T15:58:03;8.10;;;3.40;;
72584;SDS011;60618;40.084;32.908;2022-11-22T16:00:36;8.57;;;3.50;;
72584;SDS011;60618;40.084;32.908;2022-11-22T16:03:02;7.22;;;3.50;;
72584;SDS011;60618;40.084;32.908;2022-11-22T16:05:30;9.07;;;3.47;;
72584;SDS011;60618;40.084;32.908;2022-11-22T16:08:19;7.35;;;3.67;;
72584;SDS011;60618;40.084;32.908;2022-11-22T16:10:48;7.90;;;3.50;;
72584;SDS011;60618;40.084;32.908;2022-11-22T16:18:40;9.18;;;4.18;;
72584;SDS011;60618;40.084;32.908;2022-11-22T16:23:35;12.13;;;4.72;;
72584;SDS011;60618;40.084;32.908;2022-11-22T16:26:24;11.00;;;4.63;;
72584;SDS011;60618;40.084;32.908;2022-11-22T16:28:54;11.07;;;4.65;;
72584;SDS011;60618;40.084;32.908;2022-11-22T16:31:35;9.70;;;4.63;;
72584;SDS011;60618;40.084;32.908;2022-11-22T16:34:07;12.05;;;5.55;;
72584;SDS011;60618;40.084;32.908;2022-11-22T16:36:38;9.63;;;4.82;;
72584;SDS011;60618;40.084;32.908;2022-11-22T16:39:04;10.40;;;4.43;;
72584;SDS011;60618;40.084;32.908;2022-11-22T16:41:32;9.70;;;4.35;;
72584;SDS011;60618;40.084;32.908;2022-11-22T16:44:07;9.93;;;4.53;;
72584;SDS011;60618;40.084;32.908;2022-11-22T16:46:38;10.23;;;4.38;;
72584;SDS011;60618;40.084;32.908;2022-11-22T16:49:14;10.57;;;4.43;;
72584;SDS011;60618;40.084;32.908;2022-11-22T16:51:43;20.30;;;8.03;;
72584;SDS011;60618;40.084;32.908;2022-11-22T16:54:10;20.65;;;7.72;;
72584;SDS011;60618;40.084;32.908;2022-11-22T16:56:40;19.30;;;6.53;;
72584;SDS011;60618;40.084;32.908;2022-11-22T16:59:08;12.48;;;5.00;;
72584;SDS011;60618;40.084;32.908;2022-11-22T17:01:38;12.52;;;4.70;;
72584;SDS011;60618;40.084;32.908;2022-11-22T17:04:25;11.97;;;4.37;;
72584;SDS011;60618;40.084;32.908;2022-11-22T17:06:54;10.73;;;5.15;;